Contact Us:
Email: info@sawbill.com
Phone: (218)663-7150
Fax: (218)663-7980
Mail: 4620 Sawbill Trail
Box 2129
Tofte, MN 55615


Powered by
Movable Type 3.15
 
Sawbill Weather History Archives: February 2006
Current Sawbill Weather History | « January 2006 | March 2006 »


Date

High
Temperature

Low
Temperature

Barometric
Pressure

Relative
Humidity 7AM

9 AM
Temperature

Moisture

Snow

2/28/06 34 -5 29.96 49% 7 0
2/27/06 30 -7 30.03 53% -5 0
2/26/06 28 -5 30.07 61% 2 0
2/25/06 24 -9 30.31 54% -5 0
2/23/06 30 -10 30.13 55% -16 0
2/22/06 34 7 29.89 69% 10 .08" 2.5"
2/21/06 29 4 29.65 69% 17 .02" 1"
2/20/06 30 -2 29.80 69% 4 .25" 4"
2/19/06 25 4 29.71 66% 12 0
2/18/06 28 -17 29.96 51% 4 0
2/17/06 0 -19 30.33 47% -17 0
2/16/06 17 -9 30.29 52% -7 0
2/15/06 26 -16 30.20 55% -15 0
2/14/06 34 -5 29.96 50% -5 .02" 1"
2/13/06 32 15 29.47 75% 21 Trace Trace
2/12/06 29 12 29.60 62% 15 0
2/11/06 23 12 30.01 63% 12 Trace Trace
2/10/06 35 4 30.14 66% 16 .03" 1"
2/9/06 28 0 29.88 71% 22 0
2/7/06 24 -5 30.31 50% -4 0
2/6/06 28 6 30.15 47% 7 0
2/5/06 24 4 29.64 63% 6 0
2/4/06 22 4 29.94 64% 4 0
2/3/06 25 6 30.01 67% 6 Trace Trace
2/2/06 32 23 29.64 76% 24 0
2/1/06 31 23 29.55 74% 23 .12" 2"
 


Home I Trip Planning I Rentals and Outfitting I Reservations I Campgrounds I Sawbill Store I Sawbill News I Contact

© 1997 - 2017, Sawbill Canoe Outfitters, Inc. I Privacy Policy